Hermitage, TN

12:20 PM CST on February 22, 2017 (GMT -0600)
Hermitage - Copperline Ranch | | Change Station

Elev 528 ft 36.18 °N, 86.63 °W | Updated 1 second ago

Mostly Cloudy
Mostly Cloudy
67.1 °F
Feels Like 67.1 °F
N
4.9
Wind Variable Wind from South
Gusts 7.4 mph

Today
High -- | Low -- °F
--% Chance of Precip.
Yesterday
High -- | Low -- °F
Precip. -- in
Pressure 29.88 in
Visibility 10.0 miles
Clouds Few 3300 ft
Scattered Clouds 5000 ft
Scattered Clouds 20000 ft
Overcast 25000 ft
Dew Point 59 °F
Humidity 74%
Rainfall 0.04 in
Snow Depth Not available.
6:25 AM 5:34 PM
Waning Crescent, 16% visible
METAR KBNA 221753Z 18004KT 10SM FEW033 SCT050 SCT200 OVC250 19/14 A2989 RMK AO2 SLP116 60001 T01940139 10200 20133 58015
Pressure 29.88 in
Visibility 10.0 miles
Clouds Few 3300 ft
Scattered Clouds 5000 ft
Scattered Clouds 20000 ft
Overcast 25000 ft
Dew Point 59 °F
Humidity 74%
Rainfall 0.04 in
Snow Depth Not available.
6:25 AM 5:34 PM
Waning Crescent, 16% visible
METAR KBNA 221753Z 18004KT 10SM FEW033 SCT050 SCT200 OVC250 19/14 A2989 RMK AO2 SLP116 60001 T01940139 10200 20133 58015

Get Your Daily Forecast Email!

Thanks for signing up!

Be on the lookout for a verification email in your inbox.

You'll start receiving the daily forecast at 8 AM.

×

10-Day Weather Forecast

Almanac

Astronomy

Feb. 22, 2017 Rise Set
Actual Time
Civil Twilight
Nautical Twilight
Astronomical Twilight
Moon
Length of Visible Light
Length of Day
Tomorrow will be .
, % of the Moon is Illuminated

Today's Extremes

State Highs State Lows

Community

WunderPhotos

Upload Photos

1,962,540 photos uploaded!

WunderBlog® & News

Nearby

Air Quality

  Air Quality AQ Index Pollutant
Not available.

Snow Depth

Station Depth Elevation

Earthquake Activity

City Distance Mag. Time & Date
Minimum magnitude displayed is 2.5.

Coastal Water Temperatures

Place Temperature

Stations

Nearby Weather Stations

Station Location Temp. Windchill Dew Point Humidity Wind Precip. Elev Updated Type
                   

Watches & Warnings

There are currently no watches in effect.